createdAt,value
2017-07-15T00:00:13.701Z,15.10
2017-07-15T00:02:40.211Z,15.10
2017-07-15T00:05:06.653Z,15.10
2017-07-15T00:07:33.154Z,15.10
2017-07-15T00:09:59.669Z,15.00
2017-07-15T00:12:26.925Z,15.00
2017-07-15T00:14:54.148Z,14.90
2017-07-15T00:17:20.620Z,14.90
2017-07-15T00:19:47.112Z,14.90
2017-07-15T00:25:10.510Z,14.80
2017-07-15T00:27:37.719Z,14.70
2017-07-15T00:30:04.217Z,14.70
2017-07-15T00:32:30.689Z,14.60
2017-07-15T00:34:57.176Z,14.60
2017-07-15T00:37:23.684Z,14.50
2017-07-15T00:39:50.884Z,14.50
2017-07-15T00:42:17.372Z,14.50
2017-07-15T00:44:44.618Z,14.50
2017-07-15T00:47:11.821Z,14.50
2017-07-15T00:49:38.339Z,14.50
2017-07-15T00:52:04.806Z,14.50
2017-07-15T00:54:31.330Z,14.50
2017-07-15T00:56:57.821Z,14.50
2017-07-15T00:59:24.352Z,14.50
2017-07-15T01:01:50.810Z,14.50
2017-07-15T01:04:17.294Z,14.50
2017-07-15T01:06:44.522Z,14.50
2017-07-15T01:09:10.991Z,14.40
2017-07-15T01:11:37.676Z,14.40
2017-07-15T01:14:04.157Z,14.40
2017-07-15T01:16:31.389Z,14.40
2017-07-15T01:18:58.798Z,14.40
2017-07-15T01:21:25.264Z,14.40
2017-07-15T01:23:51.712Z,14.40
2017-07-15T01:26:18.227Z,14.40
2017-07-15T01:28:44.711Z,14.50
2017-07-15T01:31:11.233Z,14.40
2017-07-15T01:33:37.710Z,14.50
2017-07-15T01:36:04.204Z,14.50
2017-07-15T01:38:30.709Z,14.50
2017-07-15T01:40:57.963Z,14.50
2017-07-15T01:43:25.297Z,14.50
2017-07-15T01:45:51.791Z,14.50
2017-07-15T01:48:18.312Z,14.50
2017-07-15T01:50:44.896Z,14.50
2017-07-15T01:53:11.414Z,14.50
2017-07-15T01:55:37.984Z,14.50
2017-07-15T01:58:05.311Z,14.60
2017-07-15T02:00:31.827Z,14.50
2017-07-15T02:02:58.343Z,14.50
2017-07-15T02:05:24.812Z,14.60
2017-07-15T02:07:51.326Z,14.60
2017-07-15T02:10:17.824Z,14.60
2017-07-15T02:12:44.328Z,14.60
2017-07-15T02:15:11.590Z,14.60
2017-07-15T02:17:38.805Z,14.60
2017-07-15T02:20:05.435Z,14.60
2017-07-15T02:22:31.898Z,14.60
2017-07-15T02:24:59.119Z,14.60
2017-07-15T02:27:25.644Z,14.60
2017-07-15T02:29:52.101Z,14.60
2017-07-15T02:32:18.609Z,14.60
2017-07-15T02:34:45.076Z,14.60
2017-07-15T02:37:11.577Z,14.70
2017-07-15T02:39:38.098Z,14.60
2017-07-15T02:42:04.625Z,14.60
2017-07-15T02:44:31.096Z,14.60
2017-07-15T02:46:57.542Z,14.60
2017-07-15T02:49:24.785Z,14.60
2017-07-15T02:51:51.244Z,14.60
2017-07-15T02:54:17.866Z,14.60
2017-07-15T02:56:45.090Z,14.60
2017-07-15T02:59:11.577Z,14.60
2017-07-15T03:01:38.086Z,14.60
2017-07-15T03:04:05.308Z,14.50
2017-07-15T03:06:31.809Z,14.50
2017-07-15T03:08:58.289Z,14.60
2017-07-15T03:11:25.502Z,14.50
2017-07-15T03:13:52.084Z,14.50
2017-07-15T03:16:19.342Z,14.50
2017-07-15T03:18:46.033Z,14.50
2017-07-15T03:21:12.550Z,14.50
2017-07-15T03:23:39.089Z,14.50
2017-07-15T03:26:05.660Z,14.50
2017-07-15T03:28:32.162Z,14.50
2017-07-15T03:30:59.037Z,14.50
2017-07-15T03:33:26.359Z,14.40
2017-07-15T03:35:52.908Z,14.40
2017-07-15T03:38:19.395Z,14.40
2017-07-15T03:40:45.830Z,14.40
2017-07-15T03:43:12.365Z,14.40
2017-07-15T03:45:38.836Z,14.30
2017-07-15T03:48:05.338Z,14.30
2017-07-15T03:50:31.861Z,14.30
2017-07-15T03:52:58.335Z,14.20
2017-07-15T03:55:24.825Z,14.20
2017-07-15T03:57:51.383Z,14.20
2017-07-15T04:00:17.883Z,14.20
2017-07-15T04:02:44.388Z,14.20
2017-07-15T04:05:11.632Z,14.10
2017-07-15T04:07:38.833Z,14.10
2017-07-15T04:10:05.325Z,14.10
2017-07-15T04:12:32.570Z,14.10
2017-07-15T04:14:59.831Z,14.10
2017-07-15T04:17:27.036Z,14.10
2017-07-15T04:19:53.620Z,14.00
2017-07-15T04:22:20.096Z,14.10
2017-07-15T04:24:46.813Z,14.00
2017-07-15T04:27:13.335Z,14.00
2017-07-15T04:29:39.808Z,14.00
2017-07-15T04:32:06.305Z,14.00
2017-07-15T04:34:32.769Z,13.90
2017-07-15T04:36:59.301Z,13.90
2017-07-15T04:39:25.789Z,13.90
2017-07-15T04:41:52.281Z,13.90
2017-07-15T04:44:18.786Z,13.90
2017-07-15T04:46:45.246Z,13.90
2017-07-15T04:49:11.751Z,13.90
2017-07-15T04:51:38.235Z,13.90
2017-07-15T04:54:05.471Z,13.90
2017-07-15T04:56:31.959Z,13.90
2017-07-15T04:58:58.431Z,13.90
2017-07-15T05:01:25.034Z,14.00
2017-07-15T05:03:51.520Z,14.00
2017-07-15T05:06:18.724Z,14.10
2017-07-15T05:08:45.236Z,14.00
2017-07-15T05:11:11.741Z,14.10
2017-07-15T05:13:38.294Z,14.10
2017-07-15T05:16:04.766Z,14.20
2017-07-15T05:18:31.294Z,14.20
2017-07-15T05:20:57.775Z,14.30
2017-07-15T05:23:24.239Z,14.40
2017-07-15T05:25:50.757Z,14.40
2017-07-15T05:28:17.234Z,14.50
2017-07-15T05:30:43.690Z,14.50
2017-07-15T05:33:10.228Z,14.50
2017-07-15T05:35:36.720Z,14.60
2017-07-15T05:38:03.262Z,14.70
2017-07-15T05:40:29.725Z,14.70
2017-07-15T05:42:56.926Z,14.70
2017-07-15T05:45:23.565Z,14.70
2017-07-15T05:47:50.018Z,14.70
2017-07-15T05:50:16.485Z,14.70
2017-07-15T05:52:43.738Z,14.80
2017-07-15T05:55:10.946Z,14.80
2017-07-15T05:57:37.401Z,14.80
2017-07-15T06:00:03.917Z,14.90
2017-07-15T06:02:30.403Z,14.90
2017-07-15T06:04:56.896Z,15.00
2017-07-15T06:07:24.191Z,15.10
2017-07-15T06:09:50.674Z,15.10
2017-07-15T06:12:17.213Z,15.20
2017-07-15T06:14:43.729Z,15.30
2017-07-15T06:17:10.217Z,15.40
2017-07-15T06:19:36.747Z,15.30
2017-07-15T06:22:03.250Z,15.30
2017-07-15T06:24:30.443Z,15.30
2017-07-15T06:26:56.973Z,15.20
2017-07-15T06:29:23.440Z,15.40
2017-07-15T06:31:49.948Z,15.50
2017-07-15T06:34:16.422Z,15.60
2017-07-15T06:36:43.130Z,15.80
2017-07-15T06:39:09.572Z,15.90
2017-07-15T06:41:36.044Z,15.90
2017-07-15T06:44:03.332Z,15.70
2017-07-15T06:46:29.802Z,15.60
2017-07-15T06:48:56.327Z,15.60
2017-07-15T06:51:22.798Z,15.40
2017-07-15T06:53:50.016Z,15.20
2017-07-15T06:56:16.530Z,15.20
2017-07-15T06:58:43.002Z,15.20
2017-07-15T07:01:10.240Z,15.00
2017-07-15T07:03:36.713Z,15.00
2017-07-15T07:06:03.209Z,14.90
2017-07-15T07:08:30.488Z,14.70
2017-07-15T07:10:56.975Z,14.70
2017-07-15T07:13:23.467Z,14.70
2017-07-15T07:15:49.990Z,14.60
2017-07-15T07:18:16.461Z,14.60
2017-07-15T07:20:43.003Z,14.60
2017-07-15T07:23:09.467Z,14.60
2017-07-15T07:25:36.686Z,14.70
2017-07-15T07:28:03.182Z,14.70
2017-07-15T07:30:29.722Z,14.70
2017-07-15T07:32:56.206Z,15.00
2017-07-15T07:35:23.643Z,16.10
2017-07-15T07:37:50.102Z,16.10
2017-07-15T07:40:17.324Z,17.40
2017-07-15T07:42:43.931Z,17.40
2017-07-15T07:45:10.419Z,18.00
2017-07-15T07:47:37.610Z,18.50
2017-07-15T07:50:04.146Z,18.50
2017-07-15T07:52:30.631Z,19.00
2017-07-15T07:54:57.886Z,19.40
2017-07-15T07:57:25.153Z,19.20
2017-07-15T07:59:51.640Z,19.20
2017-07-15T08:02:18.097Z,18.90
2017-07-15T08:04:45.360Z,18.10
2017-07-15T08:07:11.852Z,18.10
2017-07-15T08:09:38.325Z,17.70
2017-07-15T08:12:04.838Z,17.40
2017-07-15T08:14:32.044Z,17.10
2017-07-15T08:16:58.570Z,17.00
2017-07-15T08:19:25.077Z,16.90
2017-07-15T08:21:51.545Z,16.80
2017-07-15T08:24:18.057Z,16.70
2017-07-15T08:26:44.516Z,16.50
2017-07-15T08:29:10.994Z,16.50
2017-07-15T08:31:38.221Z,16.30
2017-07-15T08:34:04.686Z,16.30
2017-07-15T08:36:31.179Z,16.40
2017-07-15T08:38:57.647Z,16.40
2017-07-15T08:41:24.906Z,16.50
2017-07-15T08:43:51.407Z,16.50
2017-07-15T08:46:17.872Z,16.60
2017-07-15T08:48:44.403Z,16.60
2017-07-15T08:51:10.899Z,16.70
2017-07-15T08:53:37.391Z,16.70
2017-07-15T08:56:03.907Z,16.80
2017-07-15T08:58:30.392Z,16.80
2017-07-15T09:00:56.902Z,16.80
2017-07-15T09:03:23.372Z,16.90
2017-07-15T09:05:50.587Z,17.00
2017-07-15T09:08:17.094Z,17.00
2017-07-15T09:10:43.542Z,17.10
2017-07-15T09:13:10.059Z,17.20
2017-07-15T09:15:36.555Z,17.40
2017-07-15T09:18:03.837Z,18.10
2017-07-15T09:20:30.312Z,18.00
2017-07-15T09:22:56.840Z,18.30
2017-07-15T09:25:23.327Z,18.50
2017-07-15T09:27:49.785Z,18.60
2017-07-15T09:30:16.311Z,18.70
2017-07-15T09:32:42.814Z,18.60
2017-07-15T09:35:10.120Z,18.20
2017-07-15T09:37:36.590Z,18.20
2017-07-15T09:40:03.075Z,18.10
2017-07-15T09:42:29.615Z,18.00
2017-07-15T09:44:56.094Z,17.80
2017-07-15T09:47:22.611Z,17.70
2017-07-15T09:49:49.065Z,17.50
2017-07-15T09:52:16.286Z,17.30
2017-07-15T09:54:42.794Z,17.20
2017-07-15T09:57:09.276Z,17.20
2017-07-15T09:59:36.480Z,17.00
2017-07-15T10:02:03.012Z,17.00
2017-07-15T10:04:30.265Z,17.00
2017-07-15T10:06:56.727Z,17.00
2017-07-15T10:09:24.151Z,17.20
2017-07-15T10:11:50.625Z,17.20
2017-07-15T10:14:18.514Z,17.40
2017-07-15T10:16:45.021Z,17.40
2017-07-15T10:19:12.276Z,18.10
2017-07-15T10:21:39.687Z,18.50
2017-07-15T10:24:06.186Z,18.40
2017-07-15T10:26:32.657Z,18.70
2017-07-15T10:28:59.175Z,18.70
2017-07-15T10:31:25.663Z,18.90
2017-07-15T10:33:52.948Z,19.30
2017-07-15T10:36:19.435Z,19.30
2017-07-15T10:38:46.662Z,19.70
2017-07-15T10:41:13.514Z,19.70
2017-07-15T10:43:40.723Z,20.30
2017-07-15T10:46:07.945Z,20.50
2017-07-15T10:48:34.427Z,20.50
2017-07-15T10:51:00.941Z,20.90
2017-07-15T10:53:27.378Z,21.10
2017-07-15T10:55:53.849Z,21.10
2017-07-15T10:58:21.107Z,20.60
2017-07-15T11:00:47.571Z,20.50
2017-07-15T11:03:14.053Z,20.30
2017-07-15T11:05:40.527Z,20.20
2017-07-15T11:08:07.058Z,20.00
2017-07-15T11:10:33.563Z,20.00
2017-07-15T11:13:00.781Z,20.00
2017-07-15T11:15:27.316Z,20.00
2017-07-15T11:17:53.793Z,20.00
2017-07-15T11:20:21.001Z,20.30
2017-07-15T11:22:47.542Z,20.20
2017-07-15T11:25:14.007Z,20.40
2017-07-15T11:27:41.247Z,20.20
2017-07-15T11:30:08.515Z,20.10
2017-07-15T11:32:34.970Z,20.10
2017-07-15T11:35:01.484Z,20.10
2017-07-15T11:37:28.082Z,20.10
2017-07-15T11:39:54.583Z,20.10
2017-07-15T11:42:21.047Z,20.00
2017-07-15T11:44:47.574Z,20.00
2017-07-15T11:47:14.054Z,19.90
2017-07-15T11:49:40.534Z,20.00
2017-07-15T11:52:07.079Z,20.00
2017-07-15T11:54:33.581Z,20.10
2017-07-15T11:57:00.063Z,20.10
2017-07-15T11:59:27.323Z,20.00
2017-07-15T12:01:54.533Z,20.00
2017-07-15T12:04:20.993Z,20.00
2017-07-15T12:06:47.528Z,20.00
2017-07-15T12:09:14.737Z,20.10
2017-07-15T12:11:41.268Z,20.10
2017-07-15T12:14:07.753Z,20.10
2017-07-15T12:16:34.958Z,20.10
2017-07-15T12:19:01.686Z,20.10
2017-07-15T12:21:28.185Z,20.20
2017-07-15T12:23:54.661Z,20.20
2017-07-15T12:26:21.207Z,20.30
2017-07-15T12:28:47.668Z,20.40
2017-07-15T12:31:14.906Z,20.50
2017-07-15T12:33:42.224Z,20.50
2017-07-15T12:36:08.753Z,20.50
2017-07-15T12:38:35.217Z,20.50
2017-07-15T12:41:01.722Z,20.50
2017-07-15T12:43:28.169Z,20.50
2017-07-15T12:45:54.689Z,20.50
2017-07-15T12:48:21.174Z,20.50
2017-07-15T12:50:47.853Z,20.50
2017-07-15T12:53:14.359Z,20.50
2017-07-15T12:55:40.840Z,20.50
2017-07-15T12:58:07.357Z,20.50
2017-07-15T13:00:33.842Z,20.60
2017-07-15T13:03:00.330Z,20.60
2017-07-15T13:05:26.862Z,20.70
2017-07-15T13:07:53.320Z,20.70
2017-07-15T13:10:20.525Z,20.80
2017-07-15T13:12:47.041Z,20.80
2017-07-15T13:15:13.515Z,20.80
2017-07-15T13:17:40.112Z,20.70
2017-07-15T13:20:06.626Z,20.70
2017-07-15T13:22:33.101Z,20.70
2017-07-15T13:24:59.618Z,20.70
2017-07-15T13:27:26.089Z,20.70
2017-07-15T13:29:52.587Z,20.70
2017-07-15T13:32:19.117Z,20.80
2017-07-15T13:34:45.620Z,20.80
2017-07-15T13:37:12.073Z,20.90
2017-07-15T13:39:38.534Z,20.90
2017-07-15T13:42:05.053Z,20.90
2017-07-15T13:44:31.547Z,20.80
2017-07-15T13:46:58.951Z,20.70
2017-07-15T13:49:25.491Z,20.70
2017-07-15T13:51:51.961Z,20.70
2017-07-15T13:54:20.135Z,20.80
2017-07-15T13:56:46.622Z,20.70
2017-07-15T13:59:13.294Z,20.70
2017-07-15T14:01:39.753Z,20.70
2017-07-15T14:04:06.225Z,20.60
2017-07-15T14:06:32.751Z,20.60
2017-07-15T14:08:59.261Z,20.60
2017-07-15T14:11:25.806Z,20.70
2017-07-15T14:13:52.297Z,20.70
2017-07-15T14:16:19.586Z,20.60
2017-07-15T14:18:46.091Z,20.60
2017-07-15T14:21:12.591Z,20.50
2017-07-15T14:23:39.124Z,20.40
2017-07-15T14:26:05.626Z,20.40
2017-07-15T14:28:32.099Z,20.30
2017-07-15T14:30:58.572Z,20.30
2017-07-15T14:33:25.051Z,20.20
2017-07-15T14:35:51.756Z,20.20
2017-07-15T14:38:18.221Z,20.20
2017-07-15T14:40:44.691Z,20.20
2017-07-15T14:43:11.202Z,20.10
2017-07-15T14:45:38.430Z,20.00
2017-07-15T14:48:04.930Z,20.00
2017-07-15T14:50:31.421Z,20.00
2017-07-15T14:52:57.907Z,19.90
2017-07-15T14:55:24.427Z,19.90
2017-07-15T14:57:50.865Z,19.90
2017-07-15T15:00:17.501Z,19.90
2017-07-15T15:02:43.956Z,19.90
2017-07-15T15:05:10.462Z,19.90
2017-07-15T15:07:36.995Z,19.80
2017-07-15T15:10:03.510Z,19.90
2017-07-15T15:12:30.034Z,19.80
2017-07-15T15:14:56.516Z,19.90
2017-07-15T15:17:22.998Z,19.90
2017-07-15T15:19:50.283Z,19.90
2017-07-15T15:22:16.740Z,19.90
2017-07-15T15:24:43.250Z,19.90
2017-07-15T15:27:09.755Z,19.90
2017-07-15T15:29:36.278Z,19.80
2017-07-15T15:32:03.746Z,19.60
2017-07-15T15:34:30.213Z,19.60
2017-07-15T15:36:56.710Z,19.40
2017-07-15T15:39:23.213Z,19.30
2017-07-15T15:41:49.680Z,19.30
2017-07-15T15:44:16.182Z,19.10
2017-07-15T15:46:43.416Z,19.00
2017-07-15T15:49:09.954Z,19.00
2017-07-15T15:51:36.434Z,19.00
2017-07-15T15:54:02.911Z,18.90
2017-07-15T15:56:29.435Z,18.80
2017-07-15T15:58:55.926Z,18.80
2017-07-15T16:01:22.432Z,18.80
2017-07-15T16:03:49.634Z,18.80
2017-07-15T16:06:16.130Z,18.70
2017-07-15T16:08:43.575Z,18.70
2017-07-15T16:11:10.770Z,18.70
2017-07-15T16:13:37.227Z,18.60
2017-07-15T16:16:03.743Z,18.70
2017-07-15T16:18:30.185Z,18.60
2017-07-15T16:20:57.687Z,18.60
2017-07-15T16:23:24.168Z,18.60
2017-07-15T16:25:50.790Z,18.50
2017-07-15T16:28:17.239Z,18.50
2017-07-15T16:30:43.727Z,18.50
2017-07-15T16:33:10.257Z,18.60
2017-07-15T16:35:36.777Z,18.50
2017-07-15T16:38:04.021Z,18.50
2017-07-15T16:40:31.245Z,18.50
2017-07-15T16:42:57.821Z,18.50
2017-07-15T16:45:24.301Z,18.40
2017-07-15T16:47:50.796Z,18.40
2017-07-15T16:50:17.305Z,18.40
2017-07-15T16:52:44.526Z,18.30
2017-07-15T16:55:11.027Z,18.30
2017-07-15T16:57:37.490Z,18.30
2017-07-15T17:00:04.000Z,18.30
2017-07-15T17:02:30.462Z,18.30
2017-07-15T17:04:56.949Z,18.30
2017-07-15T17:07:23.422Z,18.30
2017-07-15T17:09:49.918Z,18.30
2017-07-15T17:12:16.400Z,18.30
2017-07-15T17:14:42.856Z,18.30
2017-07-15T17:17:10.255Z,18.30
2017-07-15T17:19:36.724Z,18.30
2017-07-15T17:22:03.973Z,18.20
2017-07-15T17:24:30.474Z,18.20
2017-07-15T17:26:56.947Z,18.20
2017-07-15T17:29:24.231Z,18.20
2017-07-15T17:31:51.609Z,18.20
2017-07-15T17:34:18.078Z,18.20
2017-07-15T17:36:44.597Z,18.20
2017-07-15T17:39:11.058Z,18.30
2017-07-15T17:41:38.306Z,18.30
2017-07-15T17:44:04.806Z,18.20
2017-07-15T17:46:31.329Z,18.30
2017-07-15T17:48:57.820Z,18.20
2017-07-15T17:51:24.341Z,18.20
2017-07-15T17:53:51.597Z,18.20
2017-07-15T17:56:18.095Z,18.20
2017-07-15T17:58:44.588Z,18.20
2017-07-15T18:01:11.095Z,18.20
2017-07-15T18:03:37.573Z,18.20
2017-07-15T18:06:04.037Z,18.20
2017-07-15T18:08:30.527Z,18.20
2017-07-15T18:10:57.003Z,18.20
2017-07-15T18:13:24.234Z,18.10
2017-07-15T18:15:50.713Z,18.10
2017-07-15T18:18:17.270Z,18.10
2017-07-15T18:20:44.028Z,18.10
2017-07-15T18:23:10.517Z,18.10
2017-07-15T18:25:37.034Z,18.10
2017-07-15T18:28:04.238Z,18.00
2017-07-15T18:30:30.767Z,18.00
2017-07-15T18:32:57.236Z,17.90
2017-07-15T18:35:23.703Z,17.80
2017-07-15T18:37:50.219Z,17.80
2017-07-15T18:40:17.422Z,17.70
2017-07-15T18:42:43.892Z,17.70
2017-07-15T18:45:11.207Z,17.60
2017-07-15T18:47:37.711Z,17.50
2017-07-15T18:50:04.230Z,17.50
2017-07-15T18:52:30.661Z,17.50
2017-07-15T18:54:57.149Z,17.40
2017-07-15T18:57:23.640Z,17.30
2017-07-15T18:59:50.097Z,17.30
2017-07-15T19:02:16.583Z,17.20
2017-07-15T19:04:43.042Z,17.10
2017-07-15T19:07:09.530Z,17.00
2017-07-15T19:09:36.018Z,16.90
2017-07-15T19:12:02.531Z,16.80
2017-07-15T19:14:28.995Z,16.80
2017-07-15T19:16:55.532Z,16.70
2017-07-15T19:19:23.594Z,16.60
2017-07-15T19:21:50.117Z,16.50
2017-07-15T19:24:16.742Z,16.50
2017-07-15T19:26:43.208Z,16.40
2017-07-15T19:29:09.677Z,16.40
2017-07-15T19:31:36.909Z,16.20
2017-07-15T19:34:04.133Z,16.10
2017-07-15T19:36:30.810Z,16.10
2017-07-15T19:38:58.031Z,16.00
2017-07-15T19:41:24.499Z,16.00
2017-07-15T19:43:51.006Z,16.00
2017-07-15T19:46:17.480Z,15.90
2017-07-15T19:48:43.999Z,15.90
2017-07-15T19:51:10.475Z,15.90
2017-07-15T19:53:36.957Z,15.80
2017-07-15T19:56:04.215Z,15.80
2017-07-15T19:58:30.715Z,15.70
2017-07-15T20:00:57.251Z,15.70
2017-07-15T20:03:23.737Z,15.70
2017-07-15T20:05:50.215Z,15.70
2017-07-15T20:08:16.746Z,15.60
2017-07-15T20:10:43.220Z,15.60
2017-07-15T20:13:09.673Z,15.60
2017-07-15T20:15:36.334Z,15.60
2017-07-15T20:18:02.789Z,15.60
2017-07-15T20:20:30.024Z,15.60
2017-07-15T20:22:56.579Z,15.60
2017-07-15T20:25:23.790Z,15.70
2017-07-15T20:27:50.264Z,15.60
2017-07-15T20:30:17.546Z,15.70
2017-07-15T20:32:44.024Z,15.70
2017-07-15T20:35:10.520Z,15.70
2017-07-15T20:37:37.190Z,15.70
2017-07-15T20:40:03.646Z,15.70
2017-07-15T20:42:30.846Z,15.80
2017-07-15T20:44:57.374Z,15.80
2017-07-15T20:47:23.856Z,15.90
2017-07-15T20:49:51.110Z,15.90
2017-07-15T20:52:37.121Z,15.90
2017-07-15T20:55:03.630Z,15.90
2017-07-15T20:57:30.078Z,16.00
2017-07-15T20:59:56.580Z,16.00
2017-07-15T21:02:23.055Z,16.00
2017-07-15T21:04:49.533Z,16.00
2017-07-15T21:07:16.007Z,16.10
2017-07-15T21:09:42.491Z,16.10
2017-07-15T21:12:08.942Z,16.10
2017-07-15T21:14:35.448Z,16.10
2017-07-15T21:17:01.927Z,16.10
2017-07-15T21:19:29.140Z,16.20
2017-07-15T21:21:55.772Z,16.10
2017-07-15T21:24:22.289Z,16.10
2017-07-15T21:26:48.748Z,16.20
2017-07-15T21:29:15.275Z,16.20
2017-07-15T21:31:41.759Z,16.20
2017-07-15T21:34:08.244Z,16.10
2017-07-15T21:36:34.751Z,16.10
2017-07-15T21:39:01.233Z,16.10
2017-07-15T21:41:28.435Z,16.10
2017-07-15T21:43:54.937Z,16.10
2017-07-15T21:46:21.413Z,16.10
2017-07-15T21:48:47.928Z,16.10
2017-07-15T21:51:14.414Z,16.10
2017-07-15T21:53:41.651Z,16.10
2017-07-15T21:56:08.122Z,16.10
2017-07-15T21:58:34.621Z,16.00
2017-07-15T22:01:01.317Z,16.00
2017-07-15T22:03:27.817Z,16.00
2017-07-15T22:05:54.333Z,16.00
2017-07-15T22:08:21.595Z,15.90
2017-07-15T22:10:48.806Z,15.90
2017-07-15T22:13:16.359Z,15.90
2017-07-15T22:15:42.835Z,15.90
2017-07-15T22:18:10.036Z,15.90
2017-07-15T22:20:36.538Z,15.90
2017-07-15T22:23:03.053Z,15.90
2017-07-15T22:25:30.309Z,15.90
2017-07-15T22:27:56.792Z,15.90
2017-07-15T22:30:23.260Z,15.90
2017-07-15T22:32:49.810Z,15.90
2017-07-15T22:35:16.298Z,15.80
2017-07-15T22:37:42.750Z,15.80
2017-07-15T22:40:10.018Z,15.80
2017-07-15T22:42:37.369Z,15.80
2017-07-15T22:45:04.591Z,15.80
2017-07-15T22:47:31.071Z,15.80
2017-07-15T22:49:57.590Z,15.80
2017-07-15T22:52:24.062Z,15.80
2017-07-15T22:54:50.533Z,15.70
2017-07-15T22:57:17.788Z,15.80
2017-07-15T22:59:45.022Z,15.70
2017-07-15T23:02:11.578Z,15.70
2017-07-15T23:04:38.773Z,15.70
2017-07-15T23:07:05.252Z,15.60
2017-07-15T23:09:32.477Z,15.60
2017-07-15T23:11:58.935Z,15.60
2017-07-15T23:14:26.179Z,15.60
2017-07-15T23:16:53.398Z,15.60
2017-07-15T23:19:19.909Z,15.60
2017-07-15T23:21:46.428Z,15.60
2017-07-15T23:24:12.930Z,15.60
2017-07-15T23:26:40.167Z,15.60
2017-07-15T23:29:06.635Z,15.50
2017-07-15T23:31:33.145Z,15.60
2017-07-15T23:34:00.374Z,15.50
2017-07-15T23:36:26.899Z,15.50
2017-07-15T23:38:53.332Z,15.50
2017-07-15T23:41:19.789Z,15.50
2017-07-15T23:43:46.284Z,15.50
2017-07-15T23:46:12.783Z,15.50
2017-07-15T23:48:39.279Z,15.50
2017-07-15T23:51:05.762Z,15.50
2017-07-15T23:53:32.242Z,15.50
2017-07-15T23:55:58.957Z,15.50
2017-07-15T23:58:25.439Z,15.50
